sensor_id;sensor_type;location;lat;lon;timestamp;pressure;altitude;pressure_sealevel;temperature;humidity
20009;BME280;10165;42.662;23.260;2023-08-01T00:00:50;93849.25;;;24.15;49.78
20009;BME280;10165;42.662;23.260;2023-08-01T00:03:17;93852.94;;;23.96;50.03
20009;BME280;10165;42.662;23.260;2023-08-01T00:05:45;93845.53;;;24.09;50.29
20009;BME280;10165;42.662;23.260;2023-08-01T00:08:13;93856.41;;;23.71;51.13
20009;BME280;10165;42.662;23.260;2023-08-01T00:10:41;93852.81;;;23.33;52.91
20009;BME280;10165;42.662;23.260;2023-08-01T00:13:09;93844.25;;;23.47;52.65
20009;BME280;10165;42.662;23.260;2023-08-01T00:15:36;93850.31;;;23.80;51.18
20009;BME280;10165;42.662;23.260;2023-08-01T00:18:05;93851.50;;;23.66;50.53
20009;BME280;10165;42.662;23.260;2023-08-01T00:20:33;93855.78;;;23.80;51.07
20009;BME280;10165;42.662;23.260;2023-08-01T00:23:00;93840.31;;;24.02;50.51
20009;BME280;10165;42.662;23.260;2023-08-01T00:25:28;93836.16;;;24.10;49.97
20009;BME280;10165;42.662;23.260;2023-08-01T00:27:56;93848.31;;;24.22;49.90
20009;BME280;10165;42.662;23.260;2023-08-01T00:30:23;93839.78;;;24.20;49.44
20009;BME280;10165;42.662;23.260;2023-08-01T00:32:50;93845.75;;;24.02;50.12
20009;BME280;10165;42.662;23.260;2023-08-01T00:35:18;93841.25;;;23.96;50.36
20009;BME280;10165;42.662;23.260;2023-08-01T00:37:45;93847.69;;;23.64;51.14
20009;BME280;10165;42.662;23.260;2023-08-01T00:40:12;93842.31;;;23.60;51.73
20009;BME280;10165;42.662;23.260;2023-08-01T00:42:40;93847.47;;;23.71;51.52
20009;BME280;10165;42.662;23.260;2023-08-01T00:45:10;93843.47;;;23.47;52.03
20009;BME280;10165;42.662;23.260;2023-08-01T00:47:37;93847.88;;;23.69;51.65
20009;BME280;10165;42.662;23.260;2023-08-01T00:50:05;93834.28;;;23.82;51.17
20009;BME280;10165;42.662;23.260;2023-08-01T00:52:34;93835.06;;;23.95;50.17
20009;BME280;10165;42.662;23.260;2023-08-01T00:55:02;93832.44;;;23.79;51.32
20009;BME280;10165;42.662;23.260;2023-08-01T00:57:30;93827.84;;;23.89;50.31
20009;BME280;10165;42.662;23.260;2023-08-01T00:59:58;93835.81;;;23.83;51.10
20009;BME280;10165;42.662;23.260;2023-08-01T01:02:25;93825.53;;;24.00;50.75
20009;BME280;10165;42.662;23.260;2023-08-01T01:04:52;93829.94;;;23.43;51.96
20009;BME280;10165;42.662;23.260;2023-08-01T01:07:21;93827.41;;;23.65;51.86
20009;BME280;10165;42.662;23.260;2023-08-01T01:09:51;93833.72;;;23.33;52.56
20009;BME280;10165;42.662;23.260;2023-08-01T01:12:19;93832.00;;;23.10;53.34
20009;BME280;10165;42.662;23.260;2023-08-01T01:14:50;93835.63;;;22.91;54.09
20009;BME280;10165;42.662;23.260;2023-08-01T01:17:18;93829.03;;;22.76;54.72
20009;BME280;10165;42.662;23.260;2023-08-01T01:19:45;93818.91;;;22.44;56.24
20009;BME280;10165;42.662;23.260;2023-08-01T01:22:13;93812.78;;;22.72;54.99
20009;BME280;10165;42.662;23.260;2023-08-01T01:24:42;93812.34;;;23.31;53.00
20009;BME280;10165;42.662;23.260;2023-08-01T01:27:10;93807.97;;;23.63;51.50
20009;BME280;10165;42.662;23.260;2023-08-01T01:29:38;93814.00;;;23.42;50.98
20009;BME280;10165;42.662;23.260;2023-08-01T01:32:08;93812.00;;;23.71;50.39
20009;BME280;10165;42.662;23.260;2023-08-01T01:34:38;93807.44;;;23.93;49.42
20009;BME280;10165;42.662;23.260;2023-08-01T01:37:05;93799.28;;;24.18;48.26
20009;BME280;10165;42.662;23.260;2023-08-01T01:39:33;93797.81;;;24.26;47.72
20009;BME280;10165;42.662;23.260;2023-08-01T01:42:01;93805.13;;;24.42;47.34
20009;BME280;10165;42.662;23.260;2023-08-01T01:44:29;93799.06;;;24.25;47.38
20009;BME280;10165;42.662;23.260;2023-08-01T01:46:57;93805.91;;;23.67;49.11
20009;BME280;10165;42.662;23.260;2023-08-01T01:49:24;93808.69;;;23.09;51.03
20009;BME280;10165;42.662;23.260;2023-08-01T01:51:53;93812.25;;;22.77;52.47
20009;BME280;10165;42.662;23.260;2023-08-01T01:54:24;93811.41;;;23.09;51.82
20009;BME280;10165;42.662;23.260;2023-08-01T01:56:51;93810.97;;;23.11;51.41
20009;BME280;10165;42.662;23.260;2023-08-01T01:59:18;93811.25;;;22.71;53.47
20009;BME280;10165;42.662;23.260;2023-08-01T02:01:49;93814.28;;;22.73;52.75
20009;BME280;10165;42.662;23.260;2023-08-01T02:04:30;93818.91;;;22.60;54.44
20009;BME280;10165;42.662;23.260;2023-08-01T02:06:58;93816.94;;;22.45;54.75
20009;BME280;10165;42.662;23.260;2023-08-01T02:09:25;93809.19;;;22.75;54.13
20009;BME280;10165;42.662;23.260;2023-08-01T02:11:53;93818.91;;;23.05;52.66
20009;BME280;10165;42.662;23.260;2023-08-01T02:14:20;93806.28;;;22.82;53.80
20009;BME280;10165;42.662;23.260;2023-08-01T02:16:48;93816.69;;;22.71;53.61
20009;BME280;10165;42.662;23.260;2023-08-01T02:19:15;93807.75;;;22.55;54.26
20009;BME280;10165;42.662;23.260;2023-08-01T02:21:43;93810.16;;;22.36;54.66
20009;BME280;10165;42.662;23.260;2023-08-01T02:24:11;93811.47;;;22.77;53.31
20009;BME280;10165;42.662;23.260;2023-08-01T02:26:38;93810.22;;;22.33;54.04
20009;BME280;10165;42.662;23.260;2023-08-01T02:29:06;93810.88;;;21.88;55.53
20009;BME280;10165;42.662;23.260;2023-08-01T02:31:34;93810.41;;;22.42;53.97
20009;BME280;10165;42.662;23.260;2023-08-01T02:34:02;93806.81;;;22.61;52.56
20009;BME280;10165;42.662;23.260;2023-08-01T02:36:30;93811.69;;;22.99;51.48
20009;BME280;10165;42.662;23.260;2023-08-01T02:38:58;93804.88;;;23.07;50.09
20009;BME280;10165;42.662;23.260;2023-08-01T02:41:26;93802.94;;;22.91;50.52
20009;BME280;10165;42.662;23.260;2023-08-01T02:43:54;93809.25;;;22.88;50.37
20009;BME280;10165;42.662;23.260;2023-08-01T02:46:21;93807.91;;;22.64;50.89
20009;BME280;10165;42.662;23.260;2023-08-01T02:48:49;93804.94;;;22.58;51.29
20009;BME280;10165;42.662;23.260;2023-08-01T02:51:17;93813.19;;;22.71;51.07
20009;BME280;10165;42.662;23.260;2023-08-01T02:53:44;93804.13;;;22.29;52.06
20009;BME280;10165;42.662;23.260;2023-08-01T02:56:12;93805.59;;;22.62;51.64
20009;BME280;10165;42.662;23.260;2023-08-01T02:58:39;93811.16;;;22.75;50.39
20009;BME280;10165;42.662;23.260;2023-08-01T03:01:07;93813.34;;;22.64;51.23
20009;BME280;10165;42.662;23.260;2023-08-01T03:03:39;93805.97;;;22.00;53.31
20009;BME280;10165;42.662;23.260;2023-08-01T03:06:06;93811.28;;;22.23;52.72
20009;BME280;10165;42.662;23.260;2023-08-01T03:08:34;93814.25;;;21.76;53.39
20009;BME280;10165;42.662;23.260;2023-08-01T03:11:02;93806.63;;;21.52;54.42
20009;BME280;10165;42.662;23.260;2023-08-01T03:13:29;93807.94;;;21.43;54.64
20009;BME280;10165;42.662;23.260;2023-08-01T03:15:57;93810.72;;;21.60;54.51
20009;BME280;10165;42.662;23.260;2023-08-01T03:18:24;93805.69;;;21.22;55.36
20009;BME280;10165;42.662;23.260;2023-08-01T03:20:52;93808.97;;;20.90;56.31
20009;BME280;10165;42.662;23.260;2023-08-01T03:23:19;93808.84;;;20.97;55.67
20009;BME280;10165;42.662;23.260;2023-08-01T03:25:47;93816.50;;;20.83;56.58
20009;BME280;10165;42.662;23.260;2023-08-01T03:28:15;93821.09;;;21.06;55.65
20009;BME280;10165;42.662;23.260;2023-08-01T03:30:43;93817.91;;;20.91;55.74
20009;BME280;10165;42.662;23.260;2023-08-01T03:33:11;93816.44;;;21.06;55.11
20009;BME280;10165;42.662;23.260;2023-08-01T03:35:38;93813.38;;;21.63;53.03
20009;BME280;10165;42.662;23.260;2023-08-01T03:38:06;93818.13;;;21.20;53.77
20009;BME280;10165;42.662;23.260;2023-08-01T03:40:33;93812.72;;;20.57;56.35
20009;BME280;10165;42.662;23.260;2023-08-01T03:43:01;93815.78;;;20.79;55.78
20009;BME280;10165;42.662;23.260;2023-08-01T03:45:29;93806.63;;;21.32;54.23
20009;BME280;10165;42.662;23.260;2023-08-01T03:47:56;93817.50;;;21.52;53.10
20009;BME280;10165;42.662;23.260;2023-08-01T03:50:25;93813.72;;;22.01;51.30
20009;BME280;10165;42.662;23.260;2023-08-01T03:52:53;93811.34;;;22.03;51.44
20009;BME280;10165;42.662;23.260;2023-08-01T03:55:20;93816.31;;;21.88;52.33
20009;BME280;10165;42.662;23.260;2023-08-01T03:57:55;93816.69;;;22.39;50.71
20009;BME280;10165;42.662;23.260;2023-08-01T04:00:41;93820.66;;;22.83;49.25
20009;BME280;10165;42.662;23.260;2023-08-01T04:03:12;93813.00;;;22.62;50.68
20009;BME280;10165;42.662;23.260;2023-08-01T04:05:40;93826.03;;;22.54;50.40
20009;BME280;10165;42.662;23.260;2023-08-01T04:08:08;93816.09;;;22.48;51.71
20009;BME280;10165;42.662;23.260;2023-08-01T04:10:36;93814.06;;;22.68;50.97
20009;BME280;10165;42.662;23.260;2023-08-01T04:13:04;93814.72;;;22.88;50.05
20009;BME280;10165;42.662;23.260;2023-08-01T04:15:32;93819.91;;;23.11;49.14
20009;BME280;10165;42.662;23.260;2023-08-01T04:18:00;93816.84;;;23.09;49.32
20009;BME280;10165;42.662;23.260;2023-08-01T04:20:28;93819.47;;;23.13;48.98
20009;BME280;10165;42.662;23.260;2023-08-01T04:22:56;93822.41;;;23.06;49.20
20009;BME280;10165;42.662;23.260;2023-08-01T04:25:26;93823.31;;;22.70;49.95
20009;BME280;10165;42.662;23.260;2023-08-01T04:27:55;93828.25;;;22.59;50.32
20009;BME280;10165;42.662;23.260;2023-08-01T04:30:22;93829.53;;;22.22;51.54
20009;BME280;10165;42.662;23.260;2023-08-01T04:32:50;93834.81;;;22.13;52.23
20009;BME280;10165;42.662;23.260;2023-08-01T04:35:17;93839.44;;;21.97;52.88
20009;BME280;10165;42.662;23.260;2023-08-01T04:37:45;93841.16;;;21.71;54.36
20009;BME280;10165;42.662;23.260;2023-08-01T04:40:13;93836.84;;;22.25;53.21
20009;BME280;10165;42.662;23.260;2023-08-01T04:42:40;93840.91;;;22.01;53.49
20009;BME280;10165;42.662;23.260;2023-08-01T04:45:08;93830.81;;;22.34;52.38
20009;BME280;10165;42.662;23.260;2023-08-01T04:47:36;93826.81;;;22.71;51.18
20009;BME280;10165;42.662;23.260;2023-08-01T04:50:04;93832.91;;;22.91;50.54
20009;BME280;10165;42.662;23.260;2023-08-01T04:52:31;93833.03;;;23.00;50.93
20009;BME280;10165;42.662;23.260;2023-08-01T04:54:59;93835.78;;;23.00;50.52
20009;BME280;10165;42.662;23.260;2023-08-01T04:57:27;93833.41;;;23.02;50.05
20009;BME280;10165;42.662;23.260;2023-08-01T04:59:55;93829.88;;;22.40;51.66
20009;BME280;10165;42.662;23.260;2023-08-01T05:02:23;93828.53;;;21.80;53.77
20009;BME280;10165;42.662;23.260;2023-08-01T05:04:51;93835.63;;;21.94;53.30
20009;BME280;10165;42.662;23.260;2023-08-01T05:07:19;93829.72;;;22.15;53.03
20009;BME280;10165;42.662;23.260;2023-08-01T05:09:46;93829.44;;;22.58;51.96
20009;BME280;10165;42.662;23.260;2023-08-01T05:12:14;93828.50;;;22.81;51.20
20009;BME280;10165;42.662;23.260;2023-08-01T05:14:42;93832.75;;;22.82;51.38
20009;BME280;10165;42.662;23.260;2023-08-01T05:17:13;93836.41;;;22.92;50.66
20009;BME280;10165;42.662;23.260;2023-08-01T05:19:40;93829.94;;;22.69;51.47
20009;BME280;10165;42.662;23.260;2023-08-01T05:22:08;93826.56;;;23.10;50.80
20009;BME280;10165;42.662;23.260;2023-08-01T05:24:35;93829.47;;;23.03;50.76
20009;BME280;10165;42.662;23.260;2023-08-01T05:27:03;93836.09;;;23.31;49.75
20009;BME280;10165;42.662;23.260;2023-08-01T05:36:59;93836.88;;;23.03;50.80
20009;BME280;10165;42.662;23.260;2023-08-01T05:39:29;93839.41;;;23.10;50.47
20009;BME280;10165;42.662;23.260;2023-08-01T05:41:58;93830.75;;;23.27;50.28
20009;BME280;10165;42.662;23.260;2023-08-01T05:44:26;93831.50;;;23.28;49.93
20009;BME280;10165;42.662;23.260;2023-08-01T05:46:54;93836.41;;;23.62;48.80
20009;BME280;10165;42.662;23.260;2023-08-01T05:49:23;93842.13;;;23.39;49.48
20009;BME280;10165;42.662;23.260;2023-08-01T05:51:51;93824.19;;;23.54;48.60
20009;BME280;10165;42.662;23.260;2023-08-01T05:54:19;93824.41;;;23.47;48.41
20009;BME280;10165;42.662;23.260;2023-08-01T05:56:47;93821.72;;;23.85;47.19
20009;BME280;10165;42.662;23.260;2023-08-01T05:59:15;93830.50;;;24.17;46.41
20009;BME280;10165;42.662;23.260;2023-08-01T06:09:29;93820.00;;;24.28;45.28
20009;BME280;10165;42.662;23.260;2023-08-01T06:11:57;93821.50;;;24.55;45.17
20009;BME280;10165;42.662;23.260;2023-08-01T06:25:21;93812.38;;;24.83;42.71
20009;BME280;10165;42.662;23.260;2023-08-01T06:27:50;93819.72;;;24.61;43.57
20009;BME280;10165;42.662;23.260;2023-08-01T06:30:19;93821.41;;;24.80;42.92
20009;BME280;10165;42.662;23.260;2023-08-01T06:32:47;93819.56;;;24.90;42.86
20009;BME280;10165;42.662;23.260;2023-08-01T06:35:15;93823.81;;;24.44;43.34
20009;BME280;10165;42.662;23.260;2023-08-01T06:37:43;93814.56;;;24.28;43.85
20009;BME280;10165;42.662;23.260;2023-08-01T06:40:12;93807.81;;;24.67;42.80
20009;BME280;10165;42.662;23.260;2023-08-01T06:42:40;93811.81;;;24.41;43.50
20009;BME280;10165;42.662;23.260;2023-08-01T06:45:09;93807.13;;;24.89;42.60
20009;BME280;10165;42.662;23.260;2023-08-01T06:47:38;93804.94;;;24.84;43.09
20009;BME280;10165;42.662;23.260;2023-08-01T06:50:06;93812.63;;;25.32;42.80
20009;BME280;10165;42.662;23.260;2023-08-01T06:52:34;93815.03;;;25.08;41.80
20009;BME280;10165;42.662;23.260;2023-08-01T06:55:02;93807.34;;;25.16;42.72
20009;BME280;10165;42.662;23.260;2023-08-01T06:57:30;93808.72;;;25.42;42.20
20009;BME280;10165;42.662;23.260;2023-08-01T07:00:02;93810.75;;;25.51;42.09
20009;BME280;10165;42.662;23.260;2023-08-01T07:02:30;93814.91;;;24.65;43.45
20009;BME280;10165;42.662;23.260;2023-08-01T07:04:59;93813.94;;;25.06;43.18
20009;BME280;10165;42.662;23.260;2023-08-01T07:07:27;93811.22;;;25.28;43.50
20009;BME280;10165;42.662;23.260;2023-08-01T07:09:55;93802.94;;;25.18;42.63
20009;BME280;10165;42.662;23.260;2023-08-01T07:12:37;93806.06;;;25.51;42.93
20009;BME280;10165;42.662;23.260;2023-08-01T07:15:31;93809.25;;;25.72;42.42
20009;BME280;10165;42.662;23.260;2023-08-01T07:18:00;93804.63;;;25.59;42.53
20009;BME280;10165;42.662;23.260;2023-08-01T07:20:28;93797.91;;;25.91;42.25
20009;BME280;10165;42.662;23.260;2023-08-01T07:22:57;93794.22;;;25.76;42.26
20009;BME280;10165;42.662;23.260;2023-08-01T07:25:25;93791.78;;;25.78;42.35
20009;BME280;10165;42.662;23.260;2023-08-01T07:27:53;93788.22;;;25.99;42.59
20009;BME280;10165;42.662;23.260;2023-08-01T07:30:22;93794.44;;;26.31;41.47
20009;BME280;10165;42.662;23.260;2023-08-01T07:32:50;93785.19;;;26.37;40.83
20009;BME280;10165;42.662;23.260;2023-08-01T07:35:19;93784.34;;;25.79;42.19
20009;BME280;10165;42.662;23.260;2023-08-01T07:37:47;93781.13;;;26.51;40.99
20009;BME280;10165;42.662;23.260;2023-08-01T07:40:16;93787.75;;;25.92;42.28
20009;BME280;10165;42.662;23.260;2023-08-01T07:42:44;93788.63;;;26.20;41.89
20009;BME280;10165;42.662;23.260;2023-08-01T07:45:14;93783.56;;;26.58;41.02
20009;BME280;10165;42.662;23.260;2023-08-01T07:47:42;93783.81;;;26.42;40.89
20009;BME280;10165;42.662;23.260;2023-08-01T07:50:10;93790.06;;;26.33;41.30
20009;BME280;10165;42.662;23.260;2023-08-01T07:52:42;93787.47;;;25.99;42.61
20009;BME280;10165;42.662;23.260;2023-08-01T07:55:10;93787.81;;;26.68;41.45
20009;BME280;10165;42.662;23.260;2023-08-01T07:57:39;93778.66;;;26.44;41.44
20009;BME280;10165;42.662;23.260;2023-08-01T08:00:07;93775.50;;;26.54;41.15
20009;BME280;10165;42.662;23.260;2023-08-01T08:02:37;93773.88;;;27.02;40.15
20009;BME280;10165;42.662;23.260;2023-08-01T08:05:05;93775.47;;;26.45;41.23
20009;BME280;10165;42.662;23.260;2023-08-01T08:07:34;93772.59;;;26.58;41.67
20009;BME280;10165;42.662;23.260;2023-08-01T08:10:21;93770.44;;;26.53;41.29
20009;BME280;10165;42.662;23.260;2023-08-01T08:12:49;93766.06;;;26.64;40.95
20009;BME280;10165;42.662;23.260;2023-08-01T08:15:18;93769.41;;;26.59;40.79
20009;BME280;10165;42.662;23.260;2023-08-01T08:17:50;93772.34;;;26.92;40.23
20009;BME280;10165;42.662;23.260;2023-08-01T08:20:18;93757.38;;;27.39;39.60
20009;BME280;10165;42.662;23.260;2023-08-01T08:22:47;93758.91;;;27.22;39.92
20009;BME280;10165;42.662;23.260;2023-08-01T08:25:16;93760.88;;;26.76;41.41
20009;BME280;10165;42.662;23.260;2023-08-01T08:28:00;93758.72;;;26.43;41.61
20009;BME280;10165;42.662;23.260;2023-08-01T08:30:28;93754.94;;;26.68;41.24
20009;BME280;10165;42.662;23.260;2023-08-01T08:32:58;93749.66;;;26.92;40.86
20009;BME280;10165;42.662;23.260;2023-08-01T08:35:30;93753.41;;;26.49;41.68
20009;BME280;10165;42.662;23.260;2023-08-01T08:38:01;93751.63;;;27.00;41.01
20009;BME280;10165;42.662;23.260;2023-08-01T08:40:32;93744.59;;;26.54;41.42
20009;BME280;10165;42.662;23.260;2023-08-01T08:43:02;93749.50;;;27.04;41.04
20009;BME280;10165;42.662;23.260;2023-08-01T08:45:39;93740.75;;;27.33;39.91
20009;BME280;10165;42.662;23.260;2023-08-01T08:48:13;93737.72;;;27.40;39.44
20009;BME280;10165;42.662;23.260;2023-08-01T08:50:45;93734.22;;;27.49;39.96
20009;BME280;10165;42.662;23.260;2023-08-01T08:53:14;93733.63;;;27.36;39.36
20009;BME280;10165;42.662;23.260;2023-08-01T08:55:43;93726.25;;;27.60;39.85
20009;BME280;10165;42.662;23.260;2023-08-01T08:58:12;93729.97;;;27.90;38.32
20009;BME280;10165;42.662;23.260;2023-08-01T09:00:42;93726.56;;;27.62;39.28
20009;BME280;10165;42.662;23.260;2023-08-01T09:03:10;93720.44;;;28.00;38.73
20009;BME280;10165;42.662;23.260;2023-08-01T09:05:45;93723.66;;;27.98;38.86
20009;BME280;10165;42.662;23.260;2023-08-01T09:08:19;93722.03;;;27.50;39.36
20009;BME280;10165;42.662;23.260;2023-08-01T09:10:47;93721.47;;;27.09;39.76
20009;BME280;10165;42.662;23.260;2023-08-01T09:13:18;93713.94;;;27.37;39.60
20009;BME280;10165;42.662;23.260;2023-08-01T09:15:50;93719.56;;;27.43;39.86
20009;BME280;10165;42.662;23.260;2023-08-01T09:18:19;93720.22;;;26.47;40.80
20009;BME280;10165;42.662;23.260;2023-08-01T09:20:49;93716.25;;;27.30;40.27
20009;BME280;10165;42.662;23.260;2023-08-01T09:23:18;93715.88;;;26.86;40.34
20009;BME280;10165;42.662;23.260;2023-08-01T09:25:47;93704.97;;;27.46;40.22
20009;BME280;10165;42.662;23.260;2023-08-01T09:30:55;93701.56;;;27.93;39.13
20009;BME280;10165;42.662;23.260;2023-08-01T09:33:25;93699.22;;;27.07;40.00
20009;BME280;10165;42.662;23.260;2023-08-01T09:35:53;93696.66;;;27.13;40.37
20009;BME280;10165;42.662;23.260;2023-08-01T09:38:21;93695.31;;;27.92;39.16
20009;BME280;10165;42.662;23.260;2023-08-01T09:40:50;93689.41;;;27.34;39.89
20009;BME280;10165;42.662;23.260;2023-08-01T09:43:19;93698.00;;;27.69;39.26
20009;BME280;10165;42.662;23.260;2023-08-01T09:45:52;93683.63;;;28.07;38.42
20009;BME280;10165;42.662;23.260;2023-08-01T09:48:26;93683.44;;;28.43;37.87
20009;BME280;10165;42.662;23.260;2023-08-01T09:53:57;93686.22;;;27.86;38.50
20009;BME280;10165;42.662;23.260;2023-08-01T09:56:26;93678.22;;;27.97;38.67
20009;BME280;10165;42.662;23.260;2023-08-01T09:58:55;93676.66;;;27.73;39.17
20009;BME280;10165;42.662;23.260;2023-08-01T10:01:25;93667.16;;;28.07;38.76
20009;BME280;10165;42.662;23.260;2023-08-01T10:03:56;93665.94;;;28.17;37.83
20009;BME280;10165;42.662;23.260;2023-08-01T10:06:29;93665.97;;;28.55;37.13
20009;BME280;10165;42.662;23.260;2023-08-01T10:09:00;93661.25;;;28.32;36.66
20009;BME280;10165;42.662;23.260;2023-08-01T10:11:33;93650.91;;;28.65;36.83
20009;BME280;10165;42.662;23.260;2023-08-01T10:14:03;93642.81;;;28.71;37.31
20009;BME280;10165;42.662;23.260;2023-08-01T10:16:33;93636.94;;;28.78;36.77
20009;BME280;10165;42.662;23.260;2023-08-01T10:19:02;93642.19;;;28.67;36.75
20009;BME280;10165;42.662;23.260;2023-08-01T10:21:32;93641.41;;;29.05;36.64
20009;BME280;10165;42.662;23.260;2023-08-01T10:24:01;93639.22;;;29.09;35.78
20009;BME280;10165;42.662;23.260;2023-08-01T10:26:31;93635.59;;;28.88;35.64
20009;BME280;10165;42.662;23.260;2023-08-01T10:29:00;93634.47;;;28.56;36.66
20009;BME280;10165;42.662;23.260;2023-08-01T10:31:30;93623.75;;;28.82;36.16
20009;BME280;10165;42.662;23.260;2023-08-01T10:34:13;93629.75;;;28.57;36.58
20009;BME280;10165;42.662;23.260;2023-08-01T10:36:52;93629.81;;;28.86;35.92
20009;BME280;10165;42.662;23.260;2023-08-01T10:39:22;93635.19;;;27.94;37.29
20009;BME280;10165;42.662;23.260;2023-08-01T10:42:03;93618.16;;;29.06;36.05
20009;BME280;10165;42.662;23.260;2023-08-01T10:44:33;93611.91;;;29.20;32.83
20009;BME280;10165;42.662;23.260;2023-08-01T10:47:04;93612.72;;;29.55;29.83
20009;BME280;10165;42.662;23.260;2023-08-01T10:49:43;93607.34;;;29.46;29.29
20009;BME280;10165;42.662;23.260;2023-08-01T10:52:26;93602.28;;;29.94;28.36
20009;BME280;10165;42.662;23.260;2023-08-01T10:54:58;93605.31;;;29.61;29.20
20009;BME280;10165;42.662;23.260;2023-08-01T10:57:34;93606.09;;;29.97;28.54
20009;BME280;10165;42.662;23.260;2023-08-01T11:00:03;93596.28;;;29.61;28.63
20009;BME280;10165;42.662;23.260;2023-08-01T11:02:37;93594.09;;;29.65;28.28
20009;BME280;10165;42.662;23.260;2023-08-01T11:05:06;93598.06;;;29.64;27.67
20009;BME280;10165;42.662;23.260;2023-08-01T11:07:35;93586.25;;;29.93;27.14
20009;BME280;10165;42.662;23.260;2023-08-01T11:10:05;93584.47;;;29.89;27.23
20009;BME280;10165;42.662;23.260;2023-08-01T11:12:38;93575.16;;;29.87;27.79
20009;BME280;10165;42.662;23.260;2023-08-01T11:15:11;93573.16;;;30.08;28.17
20009;BME280;10165;42.662;23.260;2023-08-01T11:17:41;93573.53;;;29.80;28.49
20009;BME280;10165;42.662;23.260;2023-08-01T11:20:11;93569.81;;;29.83;27.39
20009;BME280;10165;42.662;23.260;2023-08-01T11:22:51;93560.50;;;30.16;27.61
20009;BME280;10165;42.662;23.260;2023-08-01T11:25:30;93569.44;;;29.90;26.78
20009;BME280;10165;42.662;23.260;2023-08-01T11:28:09;93565.28;;;29.80;25.58
20009;BME280;10165;42.662;23.260;2023-08-01T11:30:37;93558.41;;;30.11;26.24
20009;BME280;10165;42.662;23.260;2023-08-01T11:33:17;93559.75;;;29.80;27.59
20009;BME280;10165;42.662;23.260;2023-08-01T11:35:55;93548.06;;;30.06;27.40
20009;BME280;10165;42.662;23.260;2023-08-01T11:38:32;93553.66;;;30.31;27.48
20009;BME280;10165;42.662;23.260;2023-08-01T11:41:03;93552.06;;;30.45;27.35
20009;BME280;10165;42.662;23.260;2023-08-01T11:43:42;93556.13;;;30.50;27.63
20009;BME280;10165;42.662;23.260;2023-08-01T11:46:11;93548.41;;;30.54;27.41
20009;BME280;10165;42.662;23.260;2023-08-01T11:48:45;93548.13;;;30.52;26.98
20009;BME280;10165;42.662;23.260;2023-08-01T11:51:20;93539.16;;;31.14;25.16
20009;BME280;10165;42.662;23.260;2023-08-01T11:54:03;93535.25;;;31.26;26.54
20009;BME280;10165;42.662;23.260;2023-08-01T11:56:31;93546.06;;;30.98;26.77
20009;BME280;10165;42.662;23.260;2023-08-01T11:59:08;93536.03;;;30.69;27.61
20009;BME280;10165;42.662;23.260;2023-08-01T12:01:41;93539.97;;;30.94;28.02
20009;BME280;10165;42.662;23.260;2023-08-01T12:04:27;93531.22;;;30.96;26.90
20009;BME280;10165;42.662;23.260;2023-08-01T12:06:55;93534.75;;;30.45;27.31
20009;BME280;10165;42.662;23.260;2023-08-01T12:09:24;93526.53;;;30.76;25.59
20009;BME280;10165;42.662;23.260;2023-08-01T12:11:59;93518.88;;;30.60;24.96
20009;BME280;10165;42.662;23.260;2023-08-01T12:14:28;93517.25;;;30.73;24.38
20009;BME280;10165;42.662;23.260;2023-08-01T12:16:56;93521.25;;;30.98;24.89
20009;BME280;10165;42.662;23.260;2023-08-01T12:19:24;93514.06;;;30.80;23.96
20009;BME280;10165;42.662;23.260;2023-08-01T12:21:52;93513.69;;;31.30;24.65
20009;BME280;10165;42.662;23.260;2023-08-01T12:24:20;93507.72;;;31.37;24.49
20009;BME280;10165;42.662;23.260;2023-08-01T12:26:49;93501.84;;;31.18;24.89
20009;BME280;10165;42.662;23.260;2023-08-01T12:29:17;93511.53;;;30.77;25.24
20009;BME280;10165;42.662;23.260;2023-08-01T12:31:46;93506.59;;;30.35;24.18
20009;BME280;10165;42.662;23.260;2023-08-01T12:34:14;93502.19;;;30.74;24.14
20009;BME280;10165;42.662;23.260;2023-08-01T12:36:43;93509.16;;;30.64;24.35
20009;BME280;10165;42.662;23.260;2023-08-01T12:39:11;93504.75;;;31.09;24.41
20009;BME280;10165;42.662;23.260;2023-08-01T12:41:46;93502.00;;;31.46;24.38
20009;BME280;10165;42.662;23.260;2023-08-01T12:44:15;93500.75;;;31.05;23.66
20009;BME280;10165;42.662;23.260;2023-08-01T12:46:44;93497.84;;;30.94;23.91
20009;BME280;10165;42.662;23.260;2023-08-01T12:49:12;93491.69;;;31.41;23.29
20009;BME280;10165;42.662;23.260;2023-08-01T12:51:41;93489.34;;;31.65;22.91
20009;BME280;10165;42.662;23.260;2023-08-01T12:54:09;93490.84;;;31.66;23.03
20009;BME280;10165;42.662;23.260;2023-08-01T12:56:39;93482.50;;;31.55;23.18
20009;BME280;10165;42.662;23.260;2023-08-01T12:59:08;93480.13;;;31.00;24.67
20009;BME280;10165;42.662;23.260;2023-08-01T13:01:36;93484.88;;;31.37;24.51
20009;BME280;10165;42.662;23.260;2023-08-01T13:04:05;93486.09;;;31.30;23.95
20009;BME280;10165;42.662;23.260;2023-08-01T13:06:35;93470.31;;;31.30;24.40
20009;BME280;10165;42.662;23.260;2023-08-01T13:09:03;93464.50;;;31.71;24.34
20009;BME280;10165;42.662;23.260;2023-08-01T13:11:35;93468.69;;;31.55;23.98
20009;BME280;10165;42.662;23.260;2023-08-01T13:14:04;93464.25;;;31.74;24.13
20009;BME280;10165;42.662;23.260;2023-08-01T13:16:32;93456.81;;;32.03;23.08
20009;BME280;10165;42.662;23.260;2023-08-01T13:19:00;93462.56;;;31.88;22.87
20009;BME280;10165;42.662;23.260;2023-08-01T13:21:28;93459.78;;;31.83;23.31
20009;BME280;10165;42.662;23.260;2023-08-01T13:23:57;93455.75;;;31.89;22.95
20009;BME280;10165;42.662;23.260;2023-08-01T13:26:25;93451.47;;;31.29;23.22
20009;BME280;10165;42.662;23.260;2023-08-01T13:28:58;93449.94;;;31.22;23.15
20009;BME280;10165;42.662;23.260;2023-08-01T13:31:27;93461.97;;;31.25;23.03
20009;BME280;10165;42.662;23.260;2023-08-01T13:33:56;93447.13;;;31.59;22.88